MST,Max TemperatureF,Mean TemperatureF,Min TemperatureF,Max Dew PointF,MeanDew PointF,Min DewpointF,Max Humidity, Mean Humidity, Min Humidity, Max Sea Level PressureIn, Mean Sea Level PressureIn, Min Sea Level PressureIn, Max VisibilityMiles, Mean VisibilityMiles, Min VisibilityMiles, Max Wind SpeedMPH, Mean Wind SpeedMPH, Max Gust SpeedMPH,PrecipitationIn, CloudCover, Events, WindDirDegrees
2013-10-1,69,50,32,30,24,21,75,37,16,30.30,30.25,30.22,10,8,1,16,9,23,0.00,0,,183
2013-10-2,68,52,35,34,27,23,70,40,18,30.26,30.21,30.17,10,10,10,21,9,26,0.00,0,,181
2013-10-3,66,54,41,39,30,19,66,41,22,30.16,30.08,30.01,10,10,10,28,12,38,0.00,0,,197
2013-10-4,57,42,26,19,14,9,69,36,15,30.39,30.24,30.13,10,10,10,20,6,26,0.00,0,,41
2013-10-5,57,42,26,18,14,0,51,32,15,30.47,30.43,30.37,10,10,6,18,10,28,0.00,0,,52
2013-10-6,71,48,24,18,12,0,51,26,12,30.47,30.43,30.39,10,10,5,12,6,16,0.00,0,,158
2013-10-7,73,55,37,21,16,10,38,22,9,30.39,30.32,30.22,10,10,4,16,9,20,0.00,0,,155
2013-10-8,66,56,46,27,21,16,40,26,15,30.22,30.11,30.00,10,10,10,21,11,32,0.00,0,,184
2013-10-9,59,52,46,36,28,21,62,42,25,29.99,29.91,29.86,10,10,10,32,19,48,0.00,1,,168
2013-10-10,46,38,28,36,32,27,100,89,57,30.15,30.00,29.84,10,7,0,24,12,31,0.29,6,,208
2013-10-11,55,40,24,36,29,23,100,72,31,30.22,30.19,30.14,10,10,10,12,2,,0.00,0,,351
2013-10-12,60,46,32,32,27,19,87,52,22,30.22,30.18,30.15,10,10,10,15,9,20,0.00,0,,159
2013-10-13,59,50,41,32,28,23,61,44,29,30.21,30.14,30.09,10,10,10,23,12,36,0.00,1,,190
2013-10-14,55,40,26,27,23,18,86,54,23,30.28,30.24,30.21,10,10,10,12,6,,0.00,0,,194
2013-10-15,57,42,26,25,21,14,80,51,18,30.23,30.18,30.13,10,10,10,18,9,23,0.00,0,,204
2013-10-16,57,40,24,25,20,14,86,53,20,30.32,30.28,30.22,10,10,10,9,4,,0.00,0,,165
2013-10-17,60,42,23,19,13,1,74,40,10,30.29,30.24,30.17,10,10,9,12,8,,0.00,0,,200
2013-10-18,60,42,24,18,14,7,74,37,13,30.32,30.27,30.21,10,10,10,13,8,17,0.00,0,,84
2013-10-19,62,44,26,18,12,5,59,34,10,30.35,30.30,30.27,10,10,8,13,8,,0.00,0,,167
2013-10-20,66,45,24,19,12,7,64,33,11,30.28,30.21,30.15,10,10,10,13,7,17,0.00,0,,190
2013-10-21,64,45,26,18,15,14,64,33,14,30.34,30.27,30.22,10,10,10,12,7,16,0.00,0,,107
2013-10-22,66,50,33,19,17,14,48,30,13,30.38,30.33,30.29,10,10,9,12,6,,0.00,0,,144
2013-10-23,68,50,32,19,17,10,55,30,11,30.31,30.27,30.23,10,10,10,14,9,18,0.00,0,,153
2013-10-24,68,52,37,28,21,18,48,30,16,30.29,30.25,30.21,10,10,10,17,9,26,0.00,2,,155
2013-10-25,64,50,35,37,25,18,71,43,18,30.39,30.33,30.28,10,10,10,13,8,18,0.00,0,,136
2013-10-26,66,48,30,32,26,23,86,49,21,30.44,30.39,30.35,10,10,10,16,7,24,0.00,0,,134
2013-10-27,64,50,35,32,26,19,75,42,18,30.35,30.16,29.96,10,10,10,18,9,28,0.00,0,,179
2013-10-28,55,50,44,28,25,21,53,40,33,29.95,29.92,29.87,10,10,10,31,22,48,0.00,1,,180
2013-10-29,44,36,28,36,28,23,87,67,43,30.07,30.01,29.94,10,10,2,22,13,36,0.01,3,,195
2013-10-30,46,35,24,32,26,19,100,76,40,30.20,30.11,30.04,10,10,5,14,3,20,0.00,4,,273
2013-10-31,51,35,19,28,20,16,93,62,24,30.30,30.25,30.20,10,10,10,12,6,,0.00,0,,173